Oswaldo Cruz, Brazil
Current Conditions -  °F | °C
As of 10:00 AM on Thursday 23 Oct 2014 (Local Time) from SBCH Reporting Station
Clear Clear  
Wind Chill: 66°   Ceiling: Unl
Heat Index: 66°   Visibility: 6mi
Dew Point: 54°   Wind: 9mph
Humidity: 64%   Direction: 80°E
Pressure: 30.12"   Gusts: NA
Location:  27.42°S, 53.42°W
Report Text: SBCH 231200Z 08008KT CAVOK 19/12 Q1020
Loading
Personal Weather Stations






























Interactive Weather Map
Tropical Storm Tracking
New forecast layout! Learn more

10-Day Weather Forecast

Advertisements
Track Severe Weather on mobile